Time;durP1;ratioP1;P1;durP2;ratioP2;P2;SDS_P1;SDS_P2;PMS_P1;PMS_P2;Temp;Humidity;BMP_temperature;BMP_pressure;BME280_temperature;BME280_humidity;BME280_pressure;Samples;Min_cycle;Max_cycle;Signal;HPM_P1;HPM_P2
2021/04/09 00:00:03;;;;;;;14.43;9.88;;;;;;;;;;5094713;28;20281;-66
2021/04/09 00:02:30;;;;;;;13.52;11.07;;;;;;;;;;5094344;28;20233;-66
2021/04/09 00:04:57;;;;;;;16.30;10.70;;;;;;;;;;5094811;28;20285;-65
2021/04/09 00:07:24;;;;;;;14.80;10.82;;;;;;;;;;5094790;28;20284;-66
2021/04/09 00:09:51;;;;;;;17.55;11.70;;;;;;;;;;5094599;28;20254;-66
2021/04/09 00:12:18;;;;;;;14.02;10.68;;;;;;;;;;5094494;28;20234;-66
2021/04/09 00:14:44;;;;;;;15.70;9.65;;;;;;;;;;5094501;28;20339;-65
2021/04/09 00:17:11;;;;;;;14.50;10.80;;;;;;;;;;5095232;28;20277;-66
2021/04/09 00:19:38;;;;;;;15.90;11.15;;;;;;;;;;5094420;28;20281;-65
2021/04/09 00:22:05;;;;;;;18.85;10.88;;;;;;;;;;5094055;28;20280;-66
2021/04/09 00:24:32;;;;;;;14.45;10.07;;;;;;;;;;5094576;28;20204;-65
2021/04/09 00:26:59;;;;;;;15.88;9.85;;;;;;;;;;5094771;28;20298;-67
2021/04/09 00:29:26;;;;;;;13.10;10.70;;;;;;;;;;5094576;28;20545;-65
2021/04/09 00:31:53;;;;;;;12.00;9.90;;;;;;;;;;5093816;28;20229;-66
2021/04/09 00:34:19;;;;;;;15.30;10.85;;;;;;;;;;5093675;28;20285;-66
2021/04/09 00:36:46;;;;;;;12.85;11.00;;;;;;;;;;5094117;28;20193;-66
2021/04/09 00:39:14;;;;;;;13.23;11.23;;;;;;;;;;5093798;28;20229;-66
2021/04/09 00:41:41;;;;;;;12.95;11.18;;;;;;;;;;5093980;28;20276;-66
2021/04/09 00:44:09;;;;;;;19.50;11.48;;;;;;;;;;5094319;28;20269;-64
2021/04/09 00:46:35;;;;;;;15.77;11.70;;;;;;;;;;5093942;28;20669;-64
2021/04/09 00:49:02;;;;;;;19.25;11.55;;;;;;;;;;5093514;28;20256;-64
2021/04/09 00:51:29;;;;;;;14.45;11.50;;;;;;;;;;5093904;28;20194;-64
2021/04/09 00:53:56;;;;;;;16.15;10.88;;;;;;;;;;5094281;28;20323;-64
2021/04/09 00:56:26;;;;;;;14.80;11.82;;;;;;;;;;5093502;28;20746;-64
2021/04/09 00:58:53;;;;;;;15.70;11.85;;;;;;;;;;5094003;28;20197;-64
2021/04/09 01:01:20;;;;;;;13.07;11.77;;;;;;;;;;5094099;28;20296;-65
2021/04/09 01:03:47;;;;;;;11.18;10.00;;;;;;;;;;5093739;28;20276;-64
2021/04/09 01:06:14;;;;;;;14.48;11.95;;;;;;;;;;5093739;28;20290;-65
2021/04/09 01:08:40;;;;;;;20.42;12.43;;;;;;;;;;5093120;28;20218;-65
2021/04/09 01:11:07;;;;;;;13.50;11.32;;;;;;;;;;5093418;28;20197;-64
2021/04/09 01:13:35;;;;;;;18.40;11.77;;;;;;;;;;5093968;28;20284;-64
2021/04/09 01:16:02;;;;;;;19.90;10.73;;;;;;;;;;5093850;28;20195;-64
2021/04/09 01:18:31;;;;;;;14.48;10.95;;;;;;;;;;5093327;28;20233;-64
2021/04/09 01:21:02;;;;;;;14.98;10.48;;;;;;;;;;5093319;28;20675;-64
2021/04/09 01:23:46;;;;;;;17.35;11.85;;;;;;;;;;5094184;28;20285;-64
2021/04/09 01:26:32;;;;;;;15.85;11.40;;;;;;;;;;5086510;28;20198;-63
2021/04/09 01:29:12;;;;;;;20.55;12.20;;;;;;;;;;5094352;28;20310;-65
2021/04/09 01:31:47;;;;;;;19.10;13.15;;;;;;;;;;5093554;28;20598;-65
2021/04/09 01:34:14;;;;;;;15.38;10.85;;;;;;;;;;5093790;28;20268;-64
2021/04/09 01:36:43;;;;;;;15.52;12.13;;;;;;;;;;5093465;28;20293;-64
2021/04/09 01:39:12;;;;;;;16.02;13.15;;;;;;;;;;5093123;28;20293;-64
2021/04/09 01:41:39;;;;;;;18.73;11.75;;;;;;;;;;5093305;28;20312;-64
2021/04/09 01:44:07;;;;;;;15.77;12.00;;;;;;;;;;5093252;28;20226;-64
2021/04/09 01:46:34;;;;;;;13.00;11.68;;;;;;;;;;5093386;28;20597;-65
2021/04/09 01:49:02;;;;;;;12.70;11.32;;;;;;;;;;5092934;28;20307;-66
2021/04/09 01:51:29;;;;;;;15.93;10.50;;;;;;;;;;5093286;28;20202;-64
2021/04/09 01:53:56;;;;;;;15.75;11.65;;;;;;;;;;5093830;28;20194;-64
2021/04/09 01:56:24;;;;;;;20.45;10.85;;;;;;;;;;5093729;28;20228;-64
2021/04/09 01:58:51;;;;;;;17.00;12.20;;;;;;;;;;5093603;28;20194;-64
2021/04/09 02:01:19;;;;;;;18.75;11.35;;;;;;;;;;5092984;28;20285;-64
2021/04/09 02:03:47;;;;;;;19.33;12.45;;;;;;;;;;5092856;28;20197;-64
2021/04/09 02:06:15;;;;;;;17.52;11.45;;;;;;;;;;5093196;28;20288;-63
2021/04/09 02:08:42;;;;;;;16.23;11.20;;;;;;;;;;5093114;28;20249;-64
2021/04/09 02:11:09;;;;;;;14.63;11.00;;;;;;;;;;5093403;28;20277;-64
2021/04/09 02:13:36;;;;;;;18.30;10.70;;;;;;;;;;5092715;28;20307;-64
2021/04/09 02:16:03;;;;;;;11.77;10.60;;;;;;;;;;5093082;28;20282;-63
2021/04/09 02:18:30;;;;;;;14.52;11.13;;;;;;;;;;5092800;28;20289;-64
2021/04/09 02:20:57;;;;;;;15.68;10.80;;;;;;;;;;5096551;28;20280;-64
2021/04/09 02:23:25;;;;;;;12.57;10.32;;;;;;;;;;5098130;28;20201;-64
2021/04/09 02:25:52;;;;;;;15.70;10.20;;;;;;;;;;5097220;28;20193;-64
2021/04/09 02:28:18;;;;;;;12.15;10.10;;;;;;;;;;5097233;28;20644;-64
2021/04/09 02:31:02;;;;;;;14.95;10.18;;;;;;;;;;5096315;28;20284;-64
2021/04/09 02:33:29;;;;;;;13.25;9.95;;;;;;;;;;5096654;28;20280;-64
2021/04/09 02:35:55;;;;;;;14.27;10.30;;;;;;;;;;5096466;28;20193;-64
2021/04/09 02:38:22;;;;;;;13.15;10.07;;;;;;;;;;5096798;28;20284;-64
2021/04/09 02:40:51;;;;;;;14.00;10.57;;;;;;;;;;5095966;28;20297;-64
2021/04/09 02:43:17;;;;;;;16.95;10.38;;;;;;;;;;5096456;28;20359;-64
2021/04/09 02:45:44;;;;;;;15.45;10.70;;;;;;;;;;5096190;28;20202;-64
2021/04/09 02:48:13;;;;;;;13.50;10.75;;;;;;;;;;5095746;28;20288;-64
2021/04/09 02:50:42;;;;;;;18.48;10.20;;;;;;;;;;5095730;28;20285;-64
2021/04/09 02:53:12;;;;;;;12.80;10.07;;;;;;;;;;5095716;28;20204;-64
2021/04/09 02:55:41;;;;;;;12.70;9.57;;;;;;;;;;5095711;28;20319;-64
2021/04/09 02:58:10;;;;;;;14.63;10.35;;;;;;;;;;5095648;28;20216;-65
2021/04/09 03:00:37;;;;;;;13.35;9.50;;;;;;;;;;5095601;28;20355;-64
2021/04/09 03:03:05;;;;;;;10.77;9.45;;;;;;;;;;5095882;28;20232;-64
2021/04/09 03:05:32;;;;;;;17.13;11.05;;;;;;;;;;5095875;28;20251;-63
2021/04/09 03:07:59;;;;;;;14.85;9.35;;;;;;;;;;5096147;28;20292;-64
2021/04/09 03:10:26;;;;;;;15.93;9.38;;;;;;;;;;5095677;28;20639;-63
2021/04/09 03:12:53;;;;;;;17.52;10.70;;;;;;;;;;5095899;28;20742;-64
2021/04/09 03:15:24;;;;;;;13.73;9.65;;;;;;;;;;5095261;28;20281;-64
2021/04/09 03:17:54;;;;;;;13.38;10.40;;;;;;;;;;5095299;28;20186;-63
2021/04/09 03:20:20;;;;;;;14.93;9.43;;;;;;;;;;5095530;28;20199;-64
2021/04/09 03:22:47;;;;;;;12.63;9.20;;;;;;;;;;5095477;28;20235;-64
2021/04/09 03:25:14;;;;;;;16.33;10.07;;;;;;;;;;5095089;28;20280;-64
2021/04/09 03:27:41;;;;;;;17.58;10.63;;;;;;;;;;5095340;28;20277;-64
2021/04/09 03:30:08;;;;;;;14.30;9.07;;;;;;;;;;5095019;28;20220;-63
2021/04/09 03:32:36;;;;;;;10.95;8.07;;;;;;;;;;5095466;28;20225;-63
2021/04/09 03:35:03;;;;;;;10.32;9.02;;;;;;;;;;5094911;28;20288;-64
2021/04/09 03:37:30;;;;;;;14.25;8.52;;;;;;;;;;5095893;28;20254;-63
2021/04/09 03:39:56;;;;;;;16.27;10.02;;;;;;;;;;5094830;28;20198;-64
2021/04/09 03:42:23;;;;;;;19.05;9.82;;;;;;;;;;5094411;28;20662;-63
2021/04/09 03:44:50;;;;;;;14.82;8.40;;;;;;;;;;5095030;28;20387;-64
2021/04/09 03:47:17;;;;;;;12.63;9.20;;;;;;;;;;5095097;28;20331;-65
2021/04/09 03:49:44;;;;;;;14.05;9.60;;;;;;;;;;5094558;28;20224;-64
2021/04/09 03:52:11;;;;;;;15.48;10.55;;;;;;;;;;5095137;28;20193;-64
2021/04/09 03:54:38;;;;;;;12.48;9.20;;;;;;;;;;5094586;28;20286;-64
2021/04/09 03:57:05;;;;;;;15.45;8.52;;;;;;;;;;5094496;28;20288;-64
2021/04/09 03:59:32;;;;;;;14.60;9.02;;;;;;;;;;5094799;28;20252;-64
2021/04/09 04:01:58;;;;;;;11.30;8.98;;;;;;;;;;5094458;28;20198;-68
2021/04/09 04:04:25;;;;;;;13.00;8.23;;;;;;;;;;5095088;28;20280;-65
2021/04/09 04:06:53;;;;;;;14.20;9.68;;;;;;;;;;5094784;28;20209;-64
2021/04/09 04:09:20;;;;;;;11.45;8.60;;;;;;;;;;5094624;28;20256;-64
2021/04/09 04:11:47;;;;;;;12.13;9.02;;;;;;;;;;5094164;28;20243;-63
2021/04/09 04:14:13;;;;;;;13.05;7.97;;;;;;;;;;5094758;28;20232;-65
2021/04/09 04:16:40;;;;;;;13.13;10.00;;;;;;;;;;5094791;28;20645;-64
2021/04/09 04:19:07;;;;;;;17.58;8.77;;;;;;;;;;5094143;28;20233;-65
2021/04/09 04:21:34;;;;;;;10.48;8.73;;;;;;;;;;5094085;28;20651;-65
2021/04/09 04:24:02;;;;;;;14.65;9.32;;;;;;;;;;5094015;28;20255;-65
2021/04/09 04:26:28;;;;;;;10.88;8.95;;;;;;;;;;5083095;28;20285;-65
2021/04/09 04:28:55;;;;;;;12.07;9.18;;;;;;;;;;5091494;28;20305;-65
2021/04/09 04:31:22;;;;;;;13.82;9.30;;;;;;;;;;5093579;28;20702;-66
2021/04/09 04:33:49;;;;;;;13.50;9.35;;;;;;;;;;5089482;27;20233;-64
2021/04/09 04:36:15;;;;;;;9.52;8.55;;;;;;;;;;5072219;28;20241;-65
2021/04/09 04:38:42;;;;;;;22.50;11.75;;;;;;;;;;5073095;28;20245;-65
2021/04/09 04:41:10;;;;;;;13.13;7.40;;;;;;;;;;5073625;28;20289;-65
2021/04/09 04:43:37;;;;;;;10.73;9.15;;;;;;;;;;5072449;28;20289;-65
2021/04/09 04:46:03;;;;;;;15.23;9.20;;;;;;;;;;5073456;28;20703;-65
2021/04/09 04:48:30;;;;;;;17.77;9.48;;;;;;;;;;5073235;28;20285;-65
2021/04/09 04:50:57;;;;;;;15.32;9.02;;;;;;;;;;5073922;28;20281;-65
2021/04/09 04:53:24;;;;;;;20.38;10.57;;;;;;;;;;5073391;28;20205;-65
2021/04/09 04:55:50;;;;;;;9.95;8.23;;;;;;;;;;5062695;28;20227;-65
2021/04/09 04:58:18;;;;;;;19.38;10.20;;;;;;;;;;5053625;28;20278;-65
2021/04/09 05:00:45;;;;;;;11.23;9.05;;;;;;;;;;5053416;28;20290;-65
2021/04/09 05:03:12;;;;;;;14.55;9.73;;;;;;;;;;5052809;28;20234;-65
2021/04/09 05:05:38;;;;;;;10.55;9.02;;;;;;;;;;5053546;28;20559;-65
2021/04/09 05:08:05;;;;;;;12.95;9.15;;;;;;;;;;5053493;28;20301;-64
2021/04/09 05:10:32;;;;;;;13.60;10.05;;;;;;;;;;5053076;28;20265;-64
2021/04/09 05:12:59;;;;;;;9.93;8.90;;;;;;;;;;5053697;28;20633;-64
2021/04/09 05:15:26;;;;;;;14.70;9.10;;;;;;;;;;5053481;28;20235;-65
2021/04/09 05:17:53;;;;;;;13.43;8.93;;;;;;;;;;5053408;28;20290;-65
2021/04/09 05:20:20;;;;;;;11.63;8.10;;;;;;;;;;5052984;28;20205;-65
2021/04/09 05:22:47;;;;;;;14.68;9.85;;;;;;;;;;5052696;28;20202;-64
2021/04/09 05:25:14;;;;;;;11.63;9.00;;;;;;;;;;5053348;28;20229;-65
2021/04/09 05:27:40;;;;;;;14.82;9.98;;;;;;;;;;5053382;28;20282;-65
2021/04/09 05:30:08;;;;;;;10.50;8.70;;;;;;;;;;5053193;28;20257;-65
2021/04/09 05:32:35;;;;;;;11.55;8.68;;;;;;;;;;5053688;28;20333;-65
2021/04/09 05:35:02;;;;;;;12.85;8.82;;;;;;;;;;5053228;28;20556;-66
2021/04/09 05:37:29;;;;;;;13.88;8.90;;;;;;;;;;5053255;28;20281;-68
2021/04/09 05:39:55;;;;;;;12.35;9.13;;;;;;;;;;5053559;28;20203;-63
2021/04/09 05:42:22;;;;;;;13.63;9.20;;;;;;;;;;5052882;28;20648;-63
2021/04/09 05:44:49;;;;;;;13.50;8.50;;;;;;;;;;5053188;28;20273;-64
2021/04/09 05:47:16;;;;;;;10.88;8.93;;;;;;;;;;5052827;28;20645;-64
2021/04/09 05:49:43;;;;;;;12.85;9.38;;;;;;;;;;5053509;28;20722;-63
2021/04/09 05:52:15;;;;;;;11.02;8.80;;;;;;;;;;5053001;28;20203;-64
2021/04/09 05:54:42;;;;;;;11.18;8.50;;;;;;;;;;5054841;28;20675;-64
2021/04/09 05:57:09;;;;;;;11.77;8.70;;;;;;;;;;5056555;28;20286;-64
2021/04/09 05:59:36;;;;;;;20.50;9.80;;;;;;;;;;5056503;28;20668;-63
2021/04/09 06:02:02;;;;;;;12.70;9.05;;;;;;;;;;5057072;28;20199;-64
2021/04/09 06:04:29;;;;;;;18.67;9.75;;;;;;;;;;5056680;28;20215;-63
2021/04/09 06:06:57;;;;;;;13.77;9.05;;;;;;;;;;5056519;28;20235;-63
2021/04/09 06:09:23;;;;;;;16.83;9.45;;;;;;;;;;5056639;28;20322;-64
2021/04/09 06:11:50;;;;;;;13.70;9.32;;;;;;;;;;5056077;28;20282;-63
2021/04/09 06:14:17;;;;;;;16.55;10.20;;;;;;;;;;5056562;28;20288;-63
2021/04/09 06:16:44;;;;;;;12.93;9.20;;;;;;;;;;5056464;28;20634;-64
2021/04/09 06:19:11;;;;;;;10.70;9.60;;;;;;;;;;5056898;28;20605;-63
2021/04/09 06:21:37;;;;;;;13.07;9.75;;;;;;;;;;5057208;28;20703;-63
2021/04/09 06:24:05;;;;;;;12.68;9.27;;;;;;;;;;5056128;28;20640;-63
2021/04/09 06:26:33;;;;;;;12.05;9.32;;;;;;;;;;5056583;28;20278;-64
2021/04/09 06:29:00;;;;;;;16.55;9.57;;;;;;;;;;5056188;28;20302;-64
2021/04/09 06:31:26;;;;;;;17.88;10.02;;;;;;;;;;5056476;28;20227;-64
2021/04/09 06:33:53;;;;;;;16.58;10.23;;;;;;;;;;5056222;28;20669;-64
2021/04/09 06:36:20;;;;;;;12.10;9.02;;;;;;;;;;5055747;28;20232;-64
2021/04/09 06:38:47;;;;;;;14.57;10.30;;;;;;;;;;5055722;28;20241;-64
2021/04/09 06:41:14;;;;;;;15.30;9.20;;;;;;;;;;5055895;28;20660;-64
2021/04/09 06:43:41;;;;;;;12.95;8.90;;;;;;;;;;5056058;28;20224;-64
2021/04/09 06:46:08;;;;;;;12.38;9.15;;;;;;;;;;5055990;28;20226;-63
2021/04/09 06:48:35;;;;;;;17.88;8.80;;;;;;;;;;5056184;28;20646;-65
2021/04/09 06:51:02;;;;;;;14.68;9.32;;;;;;;;;;5055682;28;20195;-64
2021/04/09 06:53:29;;;;;;;13.25;8.98;;;;;;;;;;5055743;28;20282;-64
2021/04/09 06:55:56;;;;;;;16.42;10.15;;;;;;;;;;5055422;28;20242;-64
2021/04/09 06:58:25;;;;;;;10.80;8.50;;;;;;;;;;5055700;28;20191;-64
2021/04/09 07:00:52;;;;;;;15.77;8.88;;;;;;;;;;5055597;28;20535;-64
2021/04/09 07:03:19;;;;;;;14.18;9.93;;;;;;;;;;5055241;28;20200;-64
2021/04/09 07:05:46;;;;;;;12.90;8.95;;;;;;;;;;5054727;28;20195;-64
2021/04/09 07:08:13;;;;;;;15.82;10.18;;;;;;;;;;5055250;28;20282;-63
2021/04/09 07:10:40;;;;;;;9.05;8.07;;;;;;;;;;5055511;28;20310;-64
2021/04/09 07:13:07;;;;;;;13.07;9.75;;;;;;;;;;5055797;28;20199;-64
2021/04/09 07:15:39;;;;;;;13.57;8.27;;;;;;;;;;5055941;28;20281;-63
2021/04/09 07:18:07;;;;;;;14.15;8.00;;;;;;;;;;5055931;28;20278;-64
2021/04/09 07:20:34;;;;;;;16.90;8.52;;;;;;;;;;5056093;28;20200;-64
2021/04/09 07:23:02;;;;;;;12.57;9.10;;;;;;;;;;5055752;28;20627;-64
2021/04/09 07:25:29;;;;;;;16.95;10.20;;;;;;;;;;5054913;28;20707;-63
2021/04/09 07:28:09;;;;;;;14.50;8.18;;;;;;;;;;5055696;28;20651;-64
2021/04/09 07:30:36;;;;;;;12.68;8.95;;;;;;;;;;5054649;28;20242;-63
2021/04/09 07:33:04;;;;;;;9.82;8.02;;;;;;;;;;5055220;28;20277;-64
2021/04/09 07:35:31;;;;;;;15.15;9.00;;;;;;;;;;5054499;28;20257;-65
2021/04/09 07:37:58;;;;;;;10.93;7.50;;;;;;;;;;5055579;28;20282;-64
2021/04/09 07:40:27;;;;;;;8.20;7.28;;;;;;;;;;5054450;28;20239;-64
2021/04/09 07:42:54;;;;;;;11.00;8.38;;;;;;;;;;5054633;28;20299;-63
2021/04/09 07:45:21;;;;;;;11.63;8.60;;;;;;;;;;5054994;28;20184;-64
2021/04/09 07:47:59;;;;;;;12.38;9.55;;;;;;;;;;5054281;28;20199;-64
2021/04/09 07:50:33;;;;;;;20.15;9.02;;;;;;;;;;5054096;28;20233;-64
2021/04/09 07:53:00;;;;;;;14.82;8.10;;;;;;;;;;5054481;28;20197;-64
2021/04/09 07:55:29;;;;;;;14.60;8.75;;;;;;;;;;5054978;28;20195;-64
2021/04/09 07:57:56;;;;;;;10.15;8.20;;;;;;;;;;5054384;28;20207;-64
2021/04/09 08:00:26;;;;;;;14.35;8.52;;;;;;;;;;5054677;28;20203;-64
2021/04/09 08:02:54;;;;;;;11.35;7.43;;;;;;;;;;5054272;28;20184;-64
2021/04/09 08:05:21;;;;;;;10.52;7.97;;;;;;;;;;5054579;28;20266;-64
2021/04/09 08:07:49;;;;;;;13.48;8.68;;;;;;;;;;5054485;28;20196;-64
2021/04/09 08:10:16;;;;;;;12.38;8.32;;;;;;;;;;5054670;28;20219;-64
2021/04/09 08:12:44;;;;;;;15.65;7.43;;;;;;;;;;5054426;28;20249;-64
2021/04/09 08:15:18;;;;;;;11.00;8.90;;;;;;;;;;5054275;28;20290;-64
2021/04/09 08:17:45;;;;;;;10.13;6.80;;;;;;;;;;5054053;28;20206;-64
2021/04/09 08:20:12;;;;;;;11.90;7.47;;;;;;;;;;5054310;28;20283;-65
2021/04/09 08:22:40;;;;;;;9.48;6.60;;;;;;;;;;5053856;28;20660;-64
2021/04/09 08:25:09;;;;;;;13.50;7.55;;;;;;;;;;5053856;28;20200;-64
2021/04/09 08:27:36;;;;;;;10.48;7.07;;;;;;;;;;5054129;28;20271;-65
2021/04/09 08:30:04;;;;;;;14.15;8.00;;;;;;;;;;5053650;28;20716;-64
2021/04/09 08:32:31;;;;;;;9.27;7.10;;;;;;;;;;5054209;28;20237;-64
2021/04/09 08:34:59;;;;;;;10.80;7.05;;;;;;;;;;5054159;28;20197;-64
2021/04/09 08:37:25;;;;;;;9.85;6.60;;;;;;;;;;5053731;28;20207;-64
2021/04/09 08:39:52;;;;;;;11.77;7.15;;;;;;;;;;5054024;28;20693;-63
2021/04/09 08:42:20;;;;;;;8.98;7.70;;;;;;;;;;5053560;28;20669;-65
2021/04/09 08:44:47;;;;;;;9.93;6.60;;;;;;;;;;5053690;28;20327;-64
2021/04/09 08:47:17;;;;;;;9.95;7.10;;;;;;;;;;5053939;28;20293;-64
2021/04/09 08:49:44;;;;;;;13.18;8.20;;;;;;;;;;5054043;28;20234;-64
2021/04/09 08:52:12;;;;;;;14.27;7.63;;;;;;;;;;5053404;28;20230;-63
2021/04/09 08:54:49;;;;;;;11.73;7.88;;;;;;;;;;5053617;28;20231;-63
2021/04/09 08:57:27;;;;;;;13.93;7.30;;;;;;;;;;5053973;28;20184;-64
2021/04/09 09:00:04;;;;;;;9.32;7.10;;;;;;;;;;5054147;28;20190;-64
2021/04/09 09:02:39;;;;;;;7.00;6.00;;;;;;;;;;5054481;28;20220;-63
2021/04/09 09:05:07;;;;;;;9.15;5.35;;;;;;;;;;5053590;28;20185;-65
2021/04/09 09:07:48;;;;;;;16.55;6.47;;;;;;;;;;5053715;28;20229;-65
2021/04/09 09:10:34;;;;;;;17.85;7.32;;;;;;;;;;5053043;28;20829;-65
2021/04/09 09:13:19;;;;;;;8.43;6.55;;;;;;;;;;5053476;28;20238;-63
2021/04/09 09:15:56;;;;;;;9.98;6.20;;;;;;;;;;5053519;28;20224;-64
2021/04/09 09:18:42;;;;;;;10.25;6.75;;;;;;;;;;5053403;28;20195;-63
2021/04/09 09:21:10;;;;;;;8.80;6.20;;;;;;;;;;5053755;28;20290;-63
2021/04/09 09:23:43;;;;;;;8.38;5.72;;;;;;;;;;5052848;28;20196;-64
2021/04/09 09:26:20;;;;;;;9.25;6.03;;;;;;;;;;5052818;28;20205;-63
2021/04/09 09:28:47;;;;;;;13.00;6.40;;;;;;;;;;5054065;28;20197;-64
2021/04/09 09:31:31;;;;;;;10.02;5.97;;;;;;;;;;5057003;28;20203;-64
2021/04/09 09:34:16;;;;;;;9.52;5.90;;;;;;;;;;5056958;28;20337;-63
2021/04/09 09:36:59;;;;;;;9.25;5.05;;;;;;;;;;5057318;28;20697;-63
2021/04/09 09:39:32;;;;;;;5.72;5.05;;;;;;;;;;5057202;28;20258;-63
2021/04/09 09:41:59;;;;;;;6.72;4.95;;;;;;;;;;5057082;28;20240;-63
2021/04/09 09:44:35;;;;;;;7.38;5.55;;;;;;;;;;5058182;28;20233;-63
2021/04/09 09:47:07;;;;;;;5.97;4.82;;;;;;;;;;5057039;28;20272;-64
2021/04/09 09:49:35;;;;;;;11.00;5.35;;;;;;;;;;5056862;28;20221;-63
2021/04/09 09:52:03;;;;;;;10.38;6.22;;;;;;;;;;5056582;28;20215;-63
2021/04/09 09:54:31;;;;;;;7.30;5.65;;;;;;;;;;5056962;28;20205;-63
2021/04/09 09:56:59;;;;;;;8.82;5.97;;;;;;;;;;5057116;28;20328;-63
2021/04/09 09:59:27;;;;;;;7.82;5.20;;;;;;;;;;5056697;28;20605;-63
2021/04/09 10:01:54;;;;;;;10.75;5.68;;;;;;;;;;5056355;28;20287;-63
2021/04/09 10:04:22;;;;;;;6.53;5.25;;;;;;;;;;5056356;28;20727;-64
2021/04/09 10:06:51;;;;;;;5.40;4.50;;;;;;;;;;5056558;28;20209;-64
2021/04/09 10:09:25;;;;;;;4.30;3.75;;;;;;;;;;5056097;28;20227;-64
2021/04/09 10:11:52;;;;;;;4.68;3.72;;;;;;;;;;5056560;28;20226;-64
2021/04/09 10:14:19;;;;;;;9.70;4.00;;;;;;;;;;5056671;28;20289;-64
2021/04/09 10:16:45;;;;;;;4.28;3.92;;;;;;;;;;5056117;28;20232;-64
2021/04/09 10:19:12;;;;;;;7.10;4.60;;;;;;;;;;5056369;28;20247;-63
2021/04/09 10:21:41;;;;;;;4.40;3.30;;;;;;;;;;5056116;28;20448;-64
2021/04/09 10:24:08;;;;;;;6.53;4.07;;;;;;;;;;5056329;28;20436;-64
2021/04/09 10:26:35;;;;;;;4.68;3.80;;;;;;;;;;5056048;28;20195;-64
2021/04/09 10:29:02;;;;;;;6.38;4.07;;;;;;;;;;5056496;28;20280;-64
2021/04/09 10:31:29;;;;;;;3.78;3.33;;;;;;;;;;5056211;28;20196;-64
2021/04/09 10:33:59;;;;;;;3.92;3.08;;;;;;;;;;5055807;28;20284;-64
2021/04/09 10:36:26;;;;;;;6.53;3.67;;;;;;;;;;5055693;28;20328;-64
2021/04/09 10:38:55;;;;;;;4.63;3.75;;;;;;;;;;5056683;28;20439;-64
2021/04/09 10:41:23;;;;;;;2.97;2.67;;;;;;;;;;5054777;28;20229;-64
2021/04/09 10:43:54;;;;;;;3.20;2.80;;;;;;;;;;5055969;28;20269;-64
2021/04/09 10:46:21;;;;;;;2.83;2.63;;;;;;;;;;5056005;28;20525;-64
2021/04/09 10:48:47;;;;;;;3.87;3.47;;;;;;;;;;5056259;28;20652;-64
2021/04/09 10:51:14;;;;;;;2.83;2.60;;;;;;;;;;5055656;28;20472;-64
2021/04/09 10:53:41;;;;;;;3.70;3.27;;;;;;;;;;5055357;28;20441;-64
2021/04/09 10:56:10;;;;;;;4.40;2.73;;;;;;;;;;5055431;28;20478;-64
2021/04/09 10:58:37;;;;;;;3.67;2.90;;;;;;;;;;5055573;28;20996;-64
2021/04/09 11:01:09;;;;;;;2.77;2.57;;;;;;;;;;5056167;28;20479;-64
2021/04/09 11:03:37;;;;;;;3.00;2.67;;;;;;;;;;5056259;28;20424;-64
2021/04/09 11:06:04;;;;;;;2.78;2.58;;;;;;;;;;5055170;28;20525;-64
2021/04/09 11:08:32;;;;;;;3.13;2.83;;;;;;;;;;5055130;28;20282;-64
2021/04/09 11:11:05;;;;;;;4.20;2.80;;;;;;;;;;5055649;28;20546;-64
2021/04/09 11:13:34;;;;;;;3.00;2.80;;;;;;;;;;5055613;28;20539;-64
2021/04/09 11:16:01;;;;;;;7.38;3.00;;;;;;;;;;5055538;28;20209;-64
2021/04/09 11:18:47;;;;;;;3.83;3.20;;;;;;;;;;5055244;28;20202;-64
2021/04/09 11:21:14;;;;;;;3.50;3.20;;;;;;;;;;5055973;28;20445;-64
2021/04/09 11:23:41;;;;;;;6.00;3.27;;;;;;;;;;5054849;28;20667;-63
2021/04/09 11:26:16;;;;;;;6.57;3.87;;;;;;;;;;5055160;28;20961;-64
2021/04/09 11:28:51;;;;;;;3.67;3.23;;;;;;;;;;5055284;28;20430;-64
2021/04/09 11:31:21;;;;;;;3.97;3.13;;;;;;;;;;5055017;28;20468;-64
2021/04/09 11:33:48;;;;;;;3.67;3.00;;;;;;;;;;5055364;28;20502;-64
2021/04/09 11:36:15;;;;;;;3.10;2.83;;;;;;;;;;5055517;28;20523;-64
2021/04/09 11:38:42;;;;;;;4.17;3.00;;;;;;;;;;5054887;28;20476;-64
2021/04/09 11:41:24;;;;;;;3.17;2.87;;;;;;;;;;5054928;28;20481;-65
2021/04/09 11:43:51;;;;;;;5.05;4.20;;;;;;;;;;5055716;28;20565;-64
2021/04/09 11:46:32;;;;;;;3.55;3.25;;;;;;;;;;5055164;28;20567;-64
2021/04/09 11:49:02;;;;;;;6.40;3.53;;;;;;;;;;5054492;28;20198;-64
2021/04/09 11:51:29;;;;;;;5.40;3.53;;;;;;;;;;5053987;28;20257;-64
2021/04/09 11:54:02;;;;;;;5.83;4.00;;;;;;;;;;5054561;28;20476;-64
2021/04/09 11:56:41;;;;;;;4.17;3.77;;;;;;;;;;5054802;28;20531;-64
2021/04/09 11:59:13;;;;;;;4.47;3.10;;;;;;;;;;5054996;28;20446;-64
2021/04/09 12:01:41;;;;;;;4.07;3.38;;;;;;;;;;5054433;28;20234;-64
2021/04/09 12:04:08;;;;;;;5.43;3.80;;;;;;;;;;5054936;28;20300;-64
2021/04/09 12:06:38;;;;;;;5.27;3.87;;;;;;;;;;5054339;28;20445;-64
2021/04/09 12:09:05;;;;;;;4.03;3.63;;;;;;;;;;5054233;28;20441;-64
2021/04/09 12:11:32;;;;;;;4.27;3.77;;;;;;;;;;5053732;28;20441;-64
2021/04/09 12:13:59;;;;;;;4.60;3.57;;;;;;;;;;5054391;28;20792;-64
2021/04/09 12:16:27;;;;;;;5.17;3.17;;;;;;;;;;5054416;28;20527;-64
2021/04/09 12:18:54;;;;;;;3.53;2.65;;;;;;;;;;5053829;28;20441;-64
2021/04/09 12:21:21;;;;;;;3.80;2.83;;;;;;;;;;5053754;28;20285;-64
2021/04/09 12:23:47;;;;;;;3.47;3.17;;;;;;;;;;5053727;28;20857;-64
2021/04/09 12:26:14;;;;;;;3.90;3.60;;;;;;;;;;5053762;28;20998;-64
2021/04/09 12:28:41;;;;;;;4.70;3.20;;;;;;;;;;5053624;28;20536;-65
2021/04/09 12:31:08;;;;;;;4.63;3.07;;;;;;;;;;5054289;28;20571;-64
2021/04/09 12:33:35;;;;;;;5.40;3.17;;;;;;;;;;5055996;28;20461;-65
2021/04/09 12:36:02;;;;;;;5.67;3.87;;;;;;;;;;5056439;28;20476;-65
2021/04/09 12:38:29;;;;;;;4.63;4.22;;;;;;;;;;5056366;28;20450;-64
2021/04/09 12:40:55;;;;;;;6.70;5.13;;;;;;;;;;5053802;28;20240;-64
2021/04/09 12:43:22;;;;;;;8.37;3.87;;;;;;;;;;5053008;28;20510;-64
2021/04/09 12:45:49;;;;;;;5.17;3.73;;;;;;;;;;5053739;28;20488;-64
2021/04/09 12:48:16;;;;;;;5.20;4.00;;;;;;;;;;5054382;28;20437;-65
2021/04/09 12:50:43;;;;;;;4.63;4.20;;;;;;;;;;5053970;28;20838;-65
2021/04/09 12:53:10;;;;;;;4.87;3.90;;;;;;;;;;5053539;28;20249;-65
2021/04/09 12:55:37;;;;;;;5.03;3.92;;;;;;;;;;5052516;28;20960;-65
2021/04/09 12:58:04;;;;;;;4.37;3.97;;;;;;;;;;5053175;28;20677;-65
2021/04/09 13:00:30;;;;;;;5.27;4.73;;;;;;;;;;5052942;28;20492;-66
2021/04/09 13:03:00;;;;;;;6.43;4.77;;;;;;;;;;5053064;28;20441;-66
2021/04/09 13:05:29;;;;;;;4.80;4.40;;;;;;;;;;5052892;28;20504;-74
2021/04/09 13:07:57;;;;;;;8.00;5.17;;;;;;;;;;5053432;28;20853;-66
2021/04/09 13:10:23;;;;;;;4.63;4.13;;;;;;;;;;5053478;28;20496;-66
2021/04/09 13:12:50;;;;;;;5.87;5.40;;;;;;;;;;5054814;28;20455;-65
2021/04/09 13:15:17;;;;;;;5.83;5.23;;;;;;;;;;5060334;28;20540;-65
2021/04/09 13:17:44;;;;;;;6.67;4.40;;;;;;;;;;5053034;28;20517;-66
2021/04/09 13:20:11;;;;;;;6.50;4.40;;;;;;;;;;5052946;28;20444;-66
2021/04/09 13:22:37;;;;;;;5.00;4.37;;;;;;;;;;5052453;28;20524;-66
2021/04/09 13:25:06;;;;;;;5.33;4.77;;;;;;;;;;5052887;28;20486;-66
2021/04/09 13:27:36;;;;;;;5.30;4.90;;;;;;;;;;5052869;28;20469;-66
2021/04/09 13:30:03;;;;;;;8.67;5.13;;;;;;;;;;5052967;28;20618;-66
2021/04/09 13:32:30;;;;;;;7.30;4.50;;;;;;;;;;5052877;28;20527;-67
2021/04/09 13:34:57;;;;;;;5.50;4.70;;;;;;;;;;5052858;28;20450;-66
2021/04/09 13:37:26;;;;;;;4.20;3.60;;;;;;;;;;5053675;28;20477;-66
2021/04/09 13:39:53;;;;;;;4.87;4.47;;;;;;;;;;5053378;28;20476;-66
2021/04/09 13:42:21;;;;;;;6.17;5.57;;;;;;;;;;5052268;28;20688;-66
2021/04/09 13:44:47;;;;;;;5.17;4.67;;;;;;;;;;5052379;28;20540;-66
2021/04/09 13:47:14;;;;;;;4.90;4.40;;;;;;;;;;5052682;28;20979;-67
2021/04/09 13:49:41;;;;;;;5.73;4.70;;;;;;;;;;5052823;28;20473;-66
2021/04/09 13:52:08;;;;;;;7.10;5.20;;;;;;;;;;5052966;28;20494;-66
2021/04/09 13:54:35;;;;;;;9.50;5.17;;;;;;;;;;5053037;28;20950;-66
2021/04/09 13:57:01;;;;;;;6.77;4.67;;;;;;;;;;5052451;28;20532;-66
2021/04/09 13:59:29;;;;;;;6.00;5.50;;;;;;;;;;5052559;28;20488;-66
2021/04/09 14:01:56;;;;;;;4.73;4.33;;;;;;;;;;5053518;28;20495;-66
2021/04/09 14:04:23;;;;;;;4.57;3.57;;;;;;;;;;5052373;28;20477;-67
2021/04/09 14:06:50;;;;;;;4.30;3.57;;;;;;;;;;5052964;28;20443;-67
2021/04/09 14:09:17;;;;;;;8.93;3.70;;;;;;;;;;5052782;28;20491;-67
2021/04/09 14:11:44;;;;;;;4.17;3.77;;;;;;;;;;5052646;28;20525;-66
2021/04/09 14:14:10;;;;;;;3.87;3.50;;;;;;;;;;5052256;28;20603;-68
2021/04/09 14:16:38;;;;;;;5.70;4.00;;;;;;;;;;5056076;28;20503;-66
2021/04/09 14:19:05;;;;;;;4.83;4.13;;;;;;;;;;5056038;28;20448;-67
2021/04/09 14:21:32;;;;;;;4.67;3.90;;;;;;;;;;5056054;28;20477;-67
2021/04/09 14:23:58;;;;;;;5.27;3.70;;;;;;;;;;5055728;28;20471;-66
2021/04/09 14:26:25;;;;;;;4.77;4.00;;;;;;;;;;5056312;28;20515;-67
2021/04/09 14:28:52;;;;;;;4.73;4.33;;;;;;;;;;5055876;28;20981;-68
2021/04/09 14:31:19;;;;;;;3.40;2.90;;;;;;;;;;5056135;28;20912;-66
2021/04/09 14:33:46;;;;;;;3.53;3.07;;;;;;;;;;5055772;28;20477;-67
2021/04/09 14:36:13;;;;;;;3.10;2.90;;;;;;;;;;5056096;28;20473;-67